createdAt,value
2023-05-17T00:00:53.463Z,83.00
2023-05-17T00:03:26.004Z,82.80
2023-05-17T00:05:58.174Z,82.56
2023-05-17T00:08:30.287Z,81.97
2023-05-17T00:11:02.377Z,82.37
2023-05-17T00:13:34.544Z,82.22
2023-05-17T00:16:07.583Z,82.47
2023-05-17T00:18:39.835Z,82.05
2023-05-17T00:21:12.042Z,81.97
2023-05-17T00:23:44.199Z,81.35
2023-05-17T00:26:16.353Z,81.21
2023-05-17T00:28:48.477Z,80.69
2023-05-17T00:31:20.637Z,80.40
2023-05-17T00:33:52.767Z,79.98
2023-05-17T00:36:24.954Z,79.53
2023-05-17T00:38:57.491Z,78.57
2023-05-17T00:41:29.606Z,77.18
2023-05-17T00:44:01.713Z,76.98
2023-05-17T00:46:34.110Z,76.62
2023-05-17T00:49:06.412Z,75.32
2023-05-17T00:51:39.543Z,73.88
2023-05-17T00:54:12.560Z,72.13
2023-05-17T00:56:44.948Z,70.54
2023-05-17T00:59:18.166Z,69.73
2023-05-17T01:01:51.682Z,70.00
2023-05-17T01:04:24.749Z,69.13
2023-05-17T01:06:57.023Z,69.32
2023-05-17T01:09:29.838Z,69.11
2023-05-17T01:12:11.293Z,69.47
2023-05-17T01:15:20.912Z,70.53
2023-05-17T01:17:59.426Z,71.55
2023-05-17T01:20:41.613Z,72.55
2023-05-17T01:24:09.649Z,72.81
2023-05-17T01:26:44.410Z,73.94
2023-05-17T01:29:19.570Z,73.78
2023-05-17T01:31:52.943Z,73.84
2023-05-17T01:34:29.470Z,74.10
2023-05-17T01:37:01.598Z,74.40
2023-05-17T01:39:34.000Z,74.46
2023-05-17T01:42:34.681Z,75.10
2023-05-17T01:45:40.814Z,75.24
2023-05-17T01:48:32.085Z,74.86
2023-05-17T01:51:05.262Z,74.77
2023-05-17T01:53:48.648Z,75.16
2023-05-17T01:56:28.313Z,75.75
2023-05-17T01:59:03.258Z,75.86
2023-05-17T02:01:36.230Z,76.29
2023-05-17T02:04:08.536Z,77.01
2023-05-17T02:06:40.799Z,77.17
2023-05-17T02:09:12.953Z,77.44
2023-05-17T02:11:45.060Z,77.73
2023-05-17T02:14:20.109Z,77.65
2023-05-17T02:16:52.277Z,77.42
2023-05-17T02:19:24.420Z,76.70
2023-05-17T02:21:56.600Z,77.06
2023-05-17T02:24:28.863Z,76.90
2023-05-17T02:27:01.208Z,77.81
2023-05-17T02:29:36.472Z,77.48
2023-05-17T02:32:08.838Z,77.93
2023-05-17T02:34:41.062Z,78.30
2023-05-17T02:37:13.125Z,77.90
2023-05-17T02:39:45.265Z,77.72
2023-05-17T02:42:18.416Z,78.13
2023-05-17T02:44:53.160Z,77.33
2023-05-17T02:47:25.424Z,78.04
2023-05-17T02:49:57.716Z,78.22
2023-05-17T02:52:29.970Z,78.44
2023-05-17T02:55:02.552Z,78.22
2023-05-17T02:57:34.629Z,77.62
2023-05-17T03:00:09.206Z,78.07
2023-05-17T03:02:41.368Z,77.54
2023-05-17T03:05:13.673Z,76.45
2023-05-17T03:07:45.947Z,76.45
2023-05-17T03:10:18.089Z,76.14
2023-05-17T03:12:50.175Z,76.42
2023-05-17T03:15:23.609Z,76.03
2023-05-17T03:17:57.051Z,76.04
2023-05-17T03:20:29.291Z,74.03
2023-05-17T03:23:01.564Z,72.99
2023-05-17T03:28:21.266Z,72.13
2023-05-17T03:30:53.696Z,71.94
2023-05-17T03:33:26.100Z,69.82
2023-05-17T03:35:58.317Z,68.74
2023-05-17T03:38:30.639Z,66.31
2023-05-17T03:41:04.261Z,66.25
2023-05-17T03:43:36.388Z,65.93
2023-05-17T03:46:08.494Z,65.71
2023-05-17T03:48:40.622Z,65.97
2023-05-17T03:51:12.846Z,65.88
2023-05-17T03:53:45.034Z,65.72
2023-05-17T03:56:18.286Z,66.08
2023-05-17T03:58:50.513Z,66.15
2023-05-17T04:01:22.719Z,67.04
2023-05-17T04:03:54.854Z,67.67
2023-05-17T04:06:27.839Z,67.34
2023-05-17T04:09:00.183Z,68.53
2023-05-17T04:11:33.341Z,67.76
2023-05-17T04:14:05.860Z,68.07
2023-05-17T04:16:38.045Z,69.14
2023-05-17T04:19:10.144Z,69.31
2023-05-17T04:21:42.415Z,69.90
2023-05-17T04:24:14.574Z,70.55
2023-05-17T04:26:46.683Z,70.33
2023-05-17T04:29:18.844Z,69.89
2023-05-17T04:31:50.974Z,69.44
2023-05-17T04:34:24.148Z,69.59
2023-05-17T04:36:56.252Z,69.46
2023-05-17T04:39:30.117Z,69.29
2023-05-17T04:42:03.801Z,70.01
2023-05-17T04:44:35.917Z,70.15
2023-05-17T04:47:08.418Z,70.25
2023-05-17T04:49:41.727Z,70.04
2023-05-17T04:52:13.818Z,69.73
2023-05-17T04:54:45.904Z,69.14
2023-05-17T04:57:18.097Z,68.62
2023-05-17T04:59:50.210Z,67.49
2023-05-17T05:02:22.331Z,68.38
2023-05-17T05:04:54.473Z,68.31
2023-05-17T05:07:26.668Z,67.09
2023-05-17T05:09:58.777Z,67.43
2023-05-17T05:12:34.070Z,65.42
2023-05-17T05:15:06.894Z,66.24
2023-05-17T05:17:39.053Z,64.09
2023-05-17T05:20:11.619Z,65.80
2023-05-17T05:22:43.734Z,64.86
2023-05-17T05:25:15.999Z,63.70
2023-05-17T05:27:48.255Z,63.44
2023-05-17T05:30:22.660Z,62.99
2023-05-17T05:32:54.933Z,62.67
2023-05-17T05:35:30.664Z,62.12
2023-05-17T05:38:04.211Z,61.90
2023-05-17T05:40:36.469Z,62.49
2023-05-17T05:43:08.627Z,62.31
2023-05-17T05:45:45.962Z,62.11
2023-05-17T05:48:18.166Z,62.41
2023-05-17T05:50:50.359Z,59.37
2023-05-17T05:53:22.455Z,60.54
2023-05-17T05:55:54.574Z,60.28
2023-05-17T05:58:26.713Z,56.45
2023-05-17T06:01:00.154Z,57.17
2023-05-17T06:03:32.322Z,55.96
2023-05-17T06:06:04.915Z,56.29
2023-05-17T06:08:37.152Z,55.08
2023-05-17T06:11:09.279Z,54.58
2023-05-17T06:13:41.440Z,54.15
2023-05-17T06:16:13.624Z,53.09
2023-05-17T06:18:47.940Z,52.96
2023-05-17T06:21:21.495Z,53.72
2023-05-17T06:23:53.739Z,54.15
2023-05-17T06:26:26.186Z,52.04
2023-05-17T06:28:58.345Z,51.96
2023-05-17T06:31:30.468Z,51.73
2023-05-17T06:34:02.716Z,50.02
2023-05-17T06:36:37.549Z,48.98
2023-05-17T06:39:11.334Z,47.98
2023-05-17T06:41:43.544Z,48.23
2023-05-17T06:44:15.697Z,46.05
2023-05-17T06:46:47.801Z,45.80
2023-05-17T06:49:19.962Z,43.46
2023-05-17T06:51:52.102Z,44.25
2023-05-17T06:54:24.284Z,44.29
2023-05-17T06:57:01.779Z,42.96
2023-05-17T06:59:33.941Z,43.47
2023-05-17T07:02:06.446Z,44.05
2023-05-17T07:04:38.859Z,43.84
2023-05-17T07:07:11.759Z,43.78
2023-05-17T07:09:43.923Z,44.70
2023-05-17T07:12:17.283Z,46.16
2023-05-17T07:14:49.436Z,48.53
2023-05-17T07:17:21.538Z,48.94
2023-05-17T07:19:53.837Z,50.42
2023-05-17T07:22:26.321Z,51.59
2023-05-17T07:24:58.494Z,52.61
2023-05-17T07:27:33.863Z,53.75
2023-05-17T07:30:07.557Z,53.40
2023-05-17T07:32:39.930Z,51.61
2023-05-17T07:35:12.125Z,52.98
2023-05-17T07:37:44.255Z,50.22
2023-05-17T07:40:16.564Z,49.93
2023-05-17T07:42:48.904Z,49.71
2023-05-17T07:45:21.720Z,49.13
2023-05-17T07:47:53.896Z,48.79
2023-05-17T07:50:26.600Z,47.77
2023-05-17T07:52:58.716Z,47.01
2023-05-17T07:55:31.062Z,46.08
2023-05-17T07:58:03.397Z,45.77
2023-05-17T08:00:35.553Z,45.66
2023-05-17T08:03:07.910Z,43.61
2023-05-17T08:05:40.113Z,42.95
2023-05-17T08:08:12.256Z,42.05
2023-05-17T08:10:44.514Z,44.08
2023-05-17T08:13:16.729Z,41.81
2023-05-17T08:15:50.160Z,40.74
2023-05-17T08:18:23.862Z,41.16
2023-05-17T08:20:56.830Z,42.07
2023-05-17T08:23:28.917Z,41.55
2023-05-17T08:26:01.103Z,41.04
2023-05-17T08:28:33.331Z,41.04
2023-05-17T08:31:06.786Z,41.66
2023-05-17T08:33:38.970Z,40.42
2023-05-17T08:36:11.511Z,39.92
2023-05-17T08:38:44.715Z,39.99
2023-05-17T08:41:16.819Z,39.76
2023-05-17T08:43:53.201Z,40.47
2023-05-17T08:46:27.149Z,41.31
2023-05-17T08:49:02.313Z,41.58
2023-05-17T08:51:36.664Z,42.20
2023-05-17T08:54:08.929Z,41.75
2023-05-17T08:56:43.064Z,41.25
2023-05-17T08:59:15.315Z,41.53
2023-05-17T09:01:51.261Z,41.19
2023-05-17T09:04:25.412Z,41.06
2023-05-17T09:06:57.836Z,37.95
2023-05-17T09:09:30.154Z,36.75
2023-05-17T09:12:04.530Z,37.41
2023-05-17T09:14:37.140Z,37.54
2023-05-17T09:17:09.329Z,38.05
2023-05-17T09:19:50.657Z,38.01
2023-05-17T09:22:23.128Z,38.57
2023-05-17T09:24:55.250Z,38.93
2023-05-17T09:27:27.408Z,38.68
2023-05-17T09:29:59.511Z,38.35
2023-05-17T09:32:33.951Z,37.37
2023-05-17T09:35:06.721Z,36.81
2023-05-17T09:37:39.504Z,34.47
2023-05-17T09:40:22.459Z,34.96
2023-05-17T09:42:55.531Z,34.63
2023-05-17T09:45:27.815Z,35.98
2023-05-17T09:48:18.231Z,36.72
2023-05-17T09:50:51.329Z,38.20
2023-05-17T09:53:33.540Z,39.10
2023-05-17T09:56:07.136Z,38.67
2023-05-17T09:58:39.229Z,38.47
2023-05-17T10:01:12.567Z,38.04
2023-05-17T10:03:44.883Z,37.46
2023-05-17T10:06:38.203Z,37.73
2023-05-17T10:09:15.969Z,37.49
2023-05-17T10:11:48.467Z,39.38
2023-05-17T10:14:29.455Z,39.73
2023-05-17T10:17:03.547Z,39.35
2023-05-17T10:19:37.650Z,39.90
2023-05-17T10:22:21.552Z,40.08
2023-05-17T10:24:56.389Z,40.77
2023-05-17T10:27:29.937Z,41.34
2023-05-17T10:30:02.328Z,42.28
2023-05-17T10:32:34.705Z,43.51
2023-05-17T10:35:11.836Z,42.65
2023-05-17T10:37:44.670Z,42.48
2023-05-17T10:40:17.799Z,39.63
2023-05-17T10:42:56.767Z,37.54
2023-05-17T10:45:29.293Z,36.16
2023-05-17T10:48:07.327Z,33.56
2023-05-17T10:50:45.032Z,30.44
2023-05-17T10:53:26.463Z,29.69
2023-05-17T10:55:59.065Z,28.91
2023-05-17T10:58:31.187Z,29.31
2023-05-17T11:01:05.220Z,28.39
2023-05-17T11:03:38.824Z,28.00
2023-05-17T11:06:12.995Z,29.23
2023-05-17T11:09:14.255Z,32.22
2023-05-17T11:12:07.559Z,35.53
2023-05-17T11:14:45.877Z,37.23
2023-05-17T11:17:27.900Z,37.88
2023-05-17T11:20:27.904Z,39.61
2023-05-17T11:23:01.783Z,40.33
2023-05-17T11:25:42.104Z,40.75
2023-05-17T11:28:22.478Z,39.82
2023-05-17T11:31:01.477Z,41.33
2023-05-17T11:33:45.329Z,38.24
2023-05-17T11:36:23.156Z,37.50
2023-05-17T11:39:15.977Z,37.99
2023-05-17T11:41:54.054Z,37.26
2023-05-17T11:44:32.157Z,35.36
2023-05-17T11:47:06.152Z,35.56
2023-05-17T11:49:44.830Z,34.77
2023-05-17T11:52:18.882Z,34.71
2023-05-17T11:54:52.435Z,34.23
2023-05-17T11:57:31.518Z,32.24
2023-05-17T12:00:05.744Z,31.53
2023-05-17T12:02:38.504Z,30.10
2023-05-17T12:05:10.719Z,30.64
2023-05-17T12:07:43.000Z,31.58
2023-05-17T12:10:15.868Z,33.43
2023-05-17T12:12:49.851Z,34.48
2023-05-17T12:15:22.419Z,35.15
2023-05-17T12:17:56.178Z,36.55
2023-05-17T12:20:29.829Z,36.22
2023-05-17T12:23:02.306Z,35.97
2023-05-17T12:25:34.643Z,36.97
2023-05-17T12:28:22.511Z,37.55
2023-05-17T12:30:58.857Z,37.51
2023-05-17T12:33:36.174Z,39.16
2023-05-17T12:36:11.681Z,40.25
2023-05-17T12:38:45.148Z,39.58
2023-05-17T12:41:18.075Z,40.76
2023-05-17T12:43:53.121Z,40.42
2023-05-17T12:46:29.651Z,39.45
2023-05-17T12:49:14.610Z,39.60
2023-05-17T12:51:47.754Z,39.04
2023-05-17T12:54:28.454Z,39.49
2023-05-17T12:57:14.354Z,39.72
2023-05-17T12:59:53.138Z,39.29
2023-05-17T13:02:25.426Z,40.21
2023-05-17T13:04:57.763Z,39.25
2023-05-17T13:07:30.022Z,39.17
2023-05-17T13:10:02.713Z,39.87
2023-05-17T13:12:39.391Z,38.09
2023-05-17T13:15:14.622Z,36.55
2023-05-17T13:17:50.347Z,35.51
2023-05-17T13:20:23.186Z,35.99
2023-05-17T13:22:58.556Z,36.36
2023-05-17T13:25:31.841Z,36.61
2023-05-17T13:28:04.446Z,37.53
2023-05-17T13:30:37.978Z,38.35
2023-05-17T13:33:10.559Z,37.63
2023-05-17T13:35:42.908Z,37.63
2023-05-17T13:38:15.335Z,37.43
2023-05-17T13:40:47.525Z,35.78
2023-05-17T13:43:19.921Z,33.84
2023-05-17T13:45:56.943Z,33.93
2023-05-17T13:48:42.786Z,33.59
2023-05-17T13:51:15.260Z,34.02
2023-05-17T13:53:47.451Z,33.44
2023-05-17T13:56:19.532Z,35.03
2023-05-17T13:58:52.094Z,34.87
2023-05-17T14:01:24.244Z,35.16
2023-05-17T14:03:57.479Z,35.17
2023-05-17T14:06:29.932Z,34.18
2023-05-17T14:09:02.217Z,33.58
2023-05-17T14:11:34.932Z,32.85
2023-05-17T14:14:07.395Z,32.81
2023-05-17T14:16:39.547Z,32.88
2023-05-17T14:19:12.216Z,33.53
2023-05-17T14:21:44.741Z,34.53
2023-05-17T14:24:16.999Z,34.38
2023-05-17T14:26:49.215Z,35.05
2023-05-17T14:30:13.528Z,34.79
2023-05-17T14:32:46.873Z,34.05
2023-05-17T14:35:19.601Z,34.86
2023-05-17T14:37:51.893Z,34.59
2023-05-17T14:40:24.198Z,34.15
2023-05-17T14:42:56.880Z,35.58
2023-05-17T14:45:29.236Z,35.71
2023-05-17T14:48:01.427Z,36.22
2023-05-17T14:50:34.995Z,37.26
2023-05-17T14:53:07.312Z,37.74
2023-05-17T14:55:39.526Z,37.85
2023-05-17T14:58:15.048Z,37.48
2023-05-17T15:00:50.634Z,38.24
2023-05-17T15:04:15.875Z,37.62
2023-05-17T15:06:48.082Z,37.54
2023-05-17T15:09:22.974Z,38.34
2023-05-17T15:11:55.147Z,37.93
2023-05-17T15:14:27.336Z,37.56
2023-05-17T15:16:59.599Z,37.86
2023-05-17T15:19:32.393Z,39.67
2023-05-17T15:22:04.891Z,40.30
2023-05-17T15:24:37.760Z,40.62
2023-05-17T15:27:12.935Z,41.49
2023-05-17T15:29:45.313Z,41.30
2023-05-17T15:32:42.694Z,41.71
2023-05-17T15:35:14.962Z,42.77
2023-05-17T15:37:47.641Z,40.24
2023-05-17T15:40:24.767Z,39.94
2023-05-17T15:42:56.928Z,39.77
2023-05-17T15:45:29.598Z,38.13
2023-05-17T15:48:02.392Z,37.37
2023-05-17T15:50:34.737Z,37.15
2023-05-17T15:53:07.217Z,36.68
2023-05-17T15:55:39.332Z,37.18
2023-05-17T15:58:14.030Z,36.82
2023-05-17T16:00:46.759Z,36.95
2023-05-17T16:03:18.969Z,37.86
2023-05-17T16:05:53.746Z,38.50
2023-05-17T16:08:31.301Z,38.08
2023-05-17T16:11:03.638Z,39.11
2023-05-17T16:13:36.103Z,39.15
2023-05-17T16:16:08.276Z,39.03
2023-05-17T16:18:40.630Z,40.36
2023-05-17T16:21:13.760Z,41.03
2023-05-17T16:23:46.906Z,42.33
2023-05-17T16:26:19.262Z,43.17
2023-05-17T16:28:52.312Z,43.40
2023-05-17T16:31:25.179Z,43.49
2023-05-17T16:33:57.556Z,43.71
2023-05-17T16:36:29.763Z,44.12
2023-05-17T16:39:03.310Z,43.77
2023-05-17T16:41:39.785Z,44.14
2023-05-17T16:44:14.808Z,44.50
2023-05-17T16:46:47.091Z,44.56
2023-05-17T16:49:19.357Z,44.52
2023-05-17T16:52:15.685Z,45.13
2023-05-17T16:54:47.939Z,42.58
2023-05-17T16:57:20.196Z,42.85
2023-05-17T16:59:53.569Z,42.75
2023-05-17T17:02:26.153Z,41.78
2023-05-17T17:04:58.998Z,41.97
2023-05-17T17:07:31.143Z,42.34
2023-05-17T17:10:03.385Z,42.81
2023-05-17T17:12:35.813Z,42.96
2023-05-17T17:15:09.616Z,43.33
2023-05-17T17:17:42.853Z,43.85
2023-05-17T17:20:15.263Z,44.12
2023-05-17T17:22:47.411Z,44.11
2023-05-17T17:25:19.711Z,42.66
2023-05-17T17:27:53.224Z,42.43
2023-05-17T17:30:25.852Z,42.48
2023-05-17T17:37:02.980Z,43.46
2023-05-17T17:39:38.229Z,41.76
2023-05-17T17:42:11.065Z,41.18
2023-05-17T17:44:43.180Z,41.67
2023-05-17T17:47:15.771Z,42.84
2023-05-17T17:49:54.614Z,42.91
2023-05-17T17:52:26.928Z,44.62
2023-05-17T17:54:59.052Z,46.41
2023-05-17T17:57:32.381Z,46.71
2023-05-17T18:00:05.218Z,48.55
2023-05-17T18:02:37.737Z,48.48
2023-05-17T18:05:11.284Z,48.85
2023-05-17T18:07:43.534Z,49.68
2023-05-17T18:10:15.838Z,50.14
2023-05-17T18:12:50.189Z,48.95
2023-05-17T18:15:23.750Z,49.02
2023-05-17T18:17:57.489Z,48.56
2023-05-17T18:20:29.922Z,48.29
2023-05-17T18:23:02.337Z,48.75
2023-05-17T18:25:35.319Z,47.73
2023-05-17T18:28:11.603Z,47.70
2023-05-17T18:30:43.839Z,46.88
2023-05-17T18:33:16.434Z,46.92
2023-05-17T18:35:48.611Z,46.65
2023-05-17T18:38:21.504Z,46.34
2023-05-17T18:40:53.931Z,46.11
2023-05-17T18:43:26.195Z,46.18
2023-05-17T18:45:58.326Z,46.42
2023-05-17T18:48:31.128Z,45.88
2023-05-17T18:51:03.760Z,46.13
2023-05-17T18:53:38.942Z,45.39
2023-05-17T18:56:11.310Z,46.00
2023-05-17T18:58:45.654Z,44.74
2023-05-17T19:01:18.651Z,45.39
2023-05-17T19:03:51.879Z,45.58
2023-05-17T19:06:25.368Z,44.60
2023-05-17T19:08:58.857Z,44.89
2023-05-17T19:11:31.055Z,44.62
2023-05-17T19:14:03.490Z,44.36
2023-05-17T19:16:35.633Z,44.94
2023-05-17T19:19:08.372Z,44.70
2023-05-17T19:21:40.584Z,44.77
2023-05-17T19:24:12.711Z,44.91
2023-05-17T19:26:44.886Z,45.53
2023-05-17T19:29:17.314Z,45.20
2023-05-17T19:31:49.460Z,46.39
2023-05-17T19:34:21.984Z,46.17
2023-05-17T19:36:54.106Z,46.18
2023-05-17T19:39:26.284Z,46.33
2023-05-17T19:41:58.401Z,47.52
2023-05-17T19:44:31.461Z,47.69
2023-05-17T19:47:03.712Z,47.57
2023-05-17T19:49:36.467Z,47.62
2023-05-17T19:52:08.570Z,47.33
2023-05-17T19:54:40.922Z,48.00
2023-05-17T19:57:13.061Z,47.28
2023-05-17T19:59:45.774Z,47.89
2023-05-17T20:02:18.121Z,47.52
2023-05-17T20:04:51.011Z,48.37
2023-05-17T20:07:26.077Z,47.93
2023-05-17T20:09:58.322Z,47.92
2023-05-17T20:12:30.457Z,48.64
2023-05-17T20:15:03.181Z,48.77
2023-05-17T20:17:35.384Z,49.73
2023-05-17T20:20:08.521Z,49.33
2023-05-17T20:22:42.758Z,50.10
2023-05-17T20:25:14.919Z,49.54
2023-05-17T20:27:47.494Z,49.87
2023-05-17T20:30:19.668Z,50.01
2023-05-17T20:32:51.866Z,49.65
2023-05-17T20:35:24.028Z,50.02
2023-05-17T20:37:56.394Z,50.63
2023-05-17T20:40:28.775Z,50.52
2023-05-17T20:43:01.185Z,50.55
2023-05-17T20:45:34.081Z,50.41
2023-05-17T20:48:06.448Z,50.60
2023-05-17T20:50:39.719Z,47.04
2023-05-17T20:53:11.970Z,46.25
2023-05-17T20:55:44.696Z,46.17
2023-05-17T20:58:16.881Z,46.40
2023-05-17T21:00:49.193Z,45.63
2023-05-17T21:03:21.512Z,45.99
2023-05-17T21:05:56.973Z,45.82
2023-05-17T21:08:29.183Z,46.03
2023-05-17T21:11:01.425Z,46.44
2023-05-17T21:13:33.551Z,46.93
2023-05-17T21:16:06.247Z,46.97
2023-05-17T21:18:40.492Z,47.25
2023-05-17T21:21:13.519Z,47.25
2023-05-17T21:23:45.997Z,47.03
2023-05-17T21:26:18.219Z,47.32
2023-05-17T21:28:50.308Z,47.90
2023-05-17T21:31:22.711Z,48.24
2023-05-17T21:33:54.953Z,48.88
2023-05-17T21:36:27.061Z,49.00
2023-05-17T21:38:59.165Z,48.94
2023-05-17T21:41:31.619Z,48.64
2023-05-17T21:44:03.706Z,47.59
2023-05-17T21:46:35.817Z,47.81
2023-05-17T21:49:08.997Z,47.94
2023-05-17T21:51:44.078Z,47.34
2023-05-17T21:54:16.222Z,49.09
2023-05-17T21:56:48.423Z,49.00
2023-05-17T21:59:20.587Z,49.77
2023-05-17T22:01:55.528Z,49.65
2023-05-17T22:04:27.922Z,50.13
2023-05-17T22:07:00.085Z,49.43
2023-05-17T22:09:33.106Z,49.35
2023-05-17T22:12:08.649Z,50.50
2023-05-17T22:14:44.591Z,49.20
2023-05-17T22:17:17.045Z,49.48
2023-05-17T22:19:50.325Z,49.71
2023-05-17T22:22:22.921Z,50.91
2023-05-17T22:24:55.050Z,50.26
2023-05-17T22:27:27.286Z,49.98
2023-05-17T22:29:59.470Z,50.09
2023-05-17T22:32:31.642Z,50.59
2023-05-17T22:35:04.836Z,50.85
2023-05-17T22:37:37.776Z,51.05
2023-05-17T22:40:10.981Z,51.80
2023-05-17T22:42:43.396Z,52.23
2023-05-17T22:45:15.578Z,53.26
2023-05-17T22:47:47.780Z,53.53
2023-05-17T22:50:19.896Z,53.94
2023-05-17T22:52:53.432Z,54.36
2023-05-17T22:55:25.931Z,54.87
2023-05-17T22:57:58.384Z,54.28
2023-05-17T23:00:30.460Z,54.35
2023-05-17T23:03:02.620Z,55.26
2023-05-17T23:05:37.007Z,55.21
2023-05-17T23:08:10.097Z,54.57
2023-05-17T23:10:46.015Z,54.75
2023-05-17T23:13:18.387Z,54.81
2023-05-17T23:15:51.545Z,54.74
2023-05-17T23:18:24.191Z,54.89
2023-05-17T23:20:56.534Z,55.08
2023-05-17T23:23:30.173Z,54.50
2023-05-17T23:26:05.644Z,55.42
2023-05-17T23:28:38.043Z,55.37
2023-05-17T23:31:10.468Z,57.01
2023-05-17T23:33:42.888Z,54.78
2023-05-17T23:36:14.991Z,54.95
2023-05-17T23:38:47.121Z,54.59
2023-05-17T23:41:21.720Z,56.11
2023-05-17T23:43:54.063Z,54.93
2023-05-17T23:46:26.963Z,55.26
2023-05-17T23:48:59.123Z,55.43
2023-05-17T23:51:34.828Z,55.88
2023-05-17T23:54:07.372Z,57.14
2023-05-17T23:56:39.602Z,55.72
2023-05-17T23:59:12.368Z,56.09
